Time;durP1;ratioP1;P1;durP2;ratioP2;P2;SDS_P1;SDS_P2;PMS_P1;PMS_P2;Temp;Humidity;BMP_temperature;BMP_pressure;BME280_temperature;BME280_humidity;BME280_pressure;Samples;Min_cycle;Max_cycle;Signal;HPM_P1;HPM_P2
2021/05/28 00:00:19;;;;;;;18.02;11.02;;;9.10;96.40;;;;;;5115375;28;20105;-73
2021/05/28 00:02:45;;;;;;;15.95;9.73;;;9.20;95.90;;;;;;5116003;27;20040;-71
2021/05/28 00:05:12;;;;;;;14.77;9.63;;;9.20;96.20;;;;;;5116497;27;20031;-73
2021/05/28 00:07:38;;;;;;;18.17;10.15;;;9.20;96.20;;;;;;5128752;27;20043;-72
2021/05/28 00:10:05;;;;;;;16.38;10.30;;;9.20;95.90;;;;;;5123086;27;20042;-72
2021/05/28 00:12:30;;;;;;;15.70;9.50;;;9.20;96.10;;;;;;5125398;27;20039;-71
2021/05/28 00:14:56;;;;;;;14.15;8.82;;;9.30;95.50;;;;;;5135548;27;20076;-72
2021/05/28 00:17:22;;;;;;;15.70;9.95;;;9.30;95.10;;;;;;5135203;27;20083;-72
2021/05/28 00:19:48;;;;;;;16.70;10.45;;;9.40;95.00;;;;;;5116173;27;20046;-72
2021/05/28 00:22:14;;;;;;;20.52;9.75;;;9.30;95.50;;;;;;5100544;27;20047;-71
2021/05/28 00:24:39;;;;;;;15.57;9.77;;;9.30;95.20;;;;;;5115668;27;20465;-72
2021/05/28 00:27:05;;;;;;;15.45;9.65;;;9.20;95.70;;;;;;5127327;27;20043;-72
2021/05/28 00:29:31;;;;;;;17.38;11.15;;;9.20;95.20;;;;;;5133751;27;20114;-71
2021/05/28 00:31:57;;;;;;;16.83;9.98;;;9.10;96.30;;;;;;5122696;27;20035;-72
2021/05/28 00:34:23;;;;;;;14.15;9.57;;;9.10;96.30;;;;;;5100171;28;20070;-71
2021/05/28 00:36:49;;;;;;;16.67;10.05;;;9.20;95.50;;;;;;5133027;27;20478;-72
2021/05/28 00:39:15;;;;;;;16.20;10.82;;;9.10;95.80;;;;;;5114453;28;20517;-73
2021/05/28 00:41:40;;;;;;;16.38;9.63;;;9.10;95.60;;;;;;5126629;27;20035;-72
2021/05/28 00:44:06;;;;;;;23.92;11.45;;;9.20;95.90;;;;;;5135205;27;20047;-73
2021/05/28 00:46:32;;;;;;;17.42;11.45;;;9.20;96.10;;;;;;5098323;28;20050;-72
2021/05/28 00:48:57;;;;;;;21.42;11.10;;;9.20;95.80;;;;;;5115586;27;20407;-72
2021/05/28 00:51:24;;;;;;;19.52;11.05;;;9.20;96.10;;;;;;5118655;27;20082;-72
2021/05/28 00:53:50;;;;;;;17.52;10.88;;;9.20;95.40;;;;;;5096085;28;20392;-72
2021/05/28 00:56:16;;;;;;;21.08;10.02;;;9.10;96.00;;;;;;5120716;27;20039;-72
2021/05/28 00:58:42;;;;;;;15.70;9.55;;;9.20;95.10;;;;;;5114314;28;20477;-72
2021/05/28 01:01:08;;;;;;;18.13;11.00;;;9.20;95.10;;;;;;5114879;27;20035;-72
2021/05/28 01:03:35;;;;;;;19.40;10.35;;;9.10;96.30;;;;;;5118810;27;20406;-72
2021/05/28 01:06:01;;;;;;;16.08;9.90;;;9.10;95.90;;;;;;5115303;27;20755;-72
2021/05/28 01:08:27;;;;;;;12.05;8.70;;;9.10;95.60;;;;;;5129105;27;20039;-71
2021/05/28 01:10:53;;;;;;;14.48;10.02;;;9.10;95.90;;;;;;5129138;27;20046;-71
2021/05/28 01:13:18;;;;;;;17.15;9.98;;;9.10;95.70;;;;;;5133567;27;20052;-72
2021/05/28 01:15:44;;;;;;;16.67;9.50;;;9.10;95.60;;;;;;5114666;27;20036;-71
2021/05/28 01:18:10;;;;;;;18.13;10.95;;;9.10;95.80;;;;;;5102859;27;20039;-72
2021/05/28 01:20:38;;;;;;;16.65;10.65;;;9.20;95.50;;;;;;5126768;27;20035;-72
2021/05/28 01:23:05;;;;;;;13.48;8.05;;;9.10;95.80;;;;;;5126048;27;20035;-72
2021/05/28 01:25:32;;;;;;;18.88;10.13;;;9.10;95.40;;;;;;5134200;27;20032;-72
2021/05/28 01:27:58;;;;;;;13.38;9.63;;;9.20;95.00;;;;;;5104787;28;20118;-72
2021/05/28 01:30:25;;;;;;;20.17;9.15;;;9.20;95.60;;;;;;5133265;27;20106;-71
2021/05/28 01:32:52;;;;;;;13.88;8.77;;;9.30;95.00;;;;;;5121084;27;20040;-71
2021/05/28 01:35:18;;;;;;;15.88;9.98;;;9.30;94.50;;;;;;5120253;27;20035;-71
2021/05/28 01:37:44;;;;;;;15.35;9.25;;;9.20;95.60;;;;;;5112703;27;20039;-72
2021/05/28 01:40:11;;;;;;;18.10;9.50;;;9.20;95.60;;;;;;5123113;27;20132;-72
2021/05/28 01:42:38;;;;;;;17.50;8.73;;;9.10;95.50;;;;;;5120388;27;20027;-72
2021/05/28 01:45:05;;;;;;;15.32;9.70;;;9.20;94.70;;;;;;5113389;28;20027;-72
2021/05/28 01:47:30;;;;;;;15.95;9.52;;;9.20;95.20;;;;;;5114361;27;20118;-71
2021/05/28 01:49:56;;;;;;;15.48;11.15;;;9.20;94.60;;;;;;5104552;27;20492;-71
2021/05/28 01:52:26;;;;;;;20.33;11.80;;;9.20;95.80;;;;;;5133685;27;20032;-71
2021/05/28 01:54:52;;;;;;;17.67;11.70;;;9.20;94.80;;;;;;5130413;27;20035;-71
2021/05/28 01:57:18;;;;;;;19.42;10.52;;;9.20;94.70;;;;;;5106555;28;20092;-72
2021/05/28 01:59:47;;;;;;;17.48;12.02;;;9.20;95.50;;;;;;5119142;27;20054;-72
2021/05/28 02:02:14;;;;;;;17.15;11.52;;;9.10;96.30;;;;;;5133329;27;20027;-72
2021/05/28 02:04:40;;;;;;;16.23;11.00;;;9.20;95.20;;;;;;5119518;27;20046;-72
2021/05/28 02:07:07;;;;;;;18.85;10.80;;;9.20;96.00;;;;;;5133452;27;20047;-72
2021/05/28 02:09:33;;;;;;;15.38;10.45;;;9.20;95.50;;;;;;5115272;27;20028;-71
2021/05/28 02:11:59;;;;;;;15.10;10.27;;;9.20;95.70;;;;;;5123002;27;20102;-71
2021/05/28 02:14:27;;;;;;;16.48;9.98;;;9.10;96.40;;;;;;5117278;27;20039;-71
2021/05/28 02:16:52;;;;;;;15.38;9.23;;;9.10;95.80;;;;;;5118844;27;20035;-71
2021/05/28 02:19:20;;;;;;;12.43;8.15;;;9.10;95.90;;;;;;5115728;27;20484;-71
2021/05/28 02:21:46;;;;;;;17.50;8.75;;;9.10;95.30;;;;;;5114202;27;20031;-71
2021/05/28 02:24:14;;;;;;;13.60;9.63;;;9.10;95.30;;;;;;5115453;27;20036;-71
2021/05/28 02:26:40;;;;;;;14.77;9.00;;;9.10;95.90;;;;;;5113628;27;20084;-71
2021/05/28 02:29:07;;;;;;;14.70;9.43;;;9.10;95.50;;;;;;5112767;28;20050;-71
2021/05/28 02:31:32;;;;;;;14.13;9.43;;;9.10;96.00;;;;;;5115139;27;20537;-71
2021/05/28 02:33:58;;;;;;;14.35;8.80;;;9.00;96.40;;;;;;5128702;27;20038;-71
2021/05/28 02:36:23;;;;;;;12.15;7.53;;;9.10;95.50;;;;;;5131268;27;20372;-71
2021/05/28 02:38:49;;;;;;;12.98;8.07;;;9.10;95.20;;;;;;5132746;27;20043;-71
2021/05/28 02:41:15;;;;;;;10.95;7.13;;;9.20;94.60;;;;;;5127822;27;20036;-71
2021/05/28 02:43:40;;;;;;;13.50;8.32;;;9.20;95.20;;;;;;5119203;27;20346;-71
2021/05/28 02:46:06;;;;;;;12.70;7.45;;;9.10;95.90;;;;;;5131126;27;20698;-72
2021/05/28 02:48:32;;;;;;;14.90;7.07;;;9.10;95.20;;;;;;5121506;27;20047;-72
2021/05/28 02:50:57;;;;;;;13.77;7.22;;;9.20;94.90;;;;;;5113322;27;20118;-72
2021/05/28 02:53:23;;;;;;;10.45;6.78;;;9.20;94.80;;;;;;5098061;27;20027;-72
2021/05/28 02:55:48;;;;;;;11.68;7.30;;;9.20;95.00;;;;;;5132386;27;20039;-71
2021/05/28 02:58:14;;;;;;;14.02;6.97;;;9.20;94.70;;;;;;5111013;27;20031;-71
2021/05/28 03:00:40;;;;;;;12.23;7.00;;;9.20;94.60;;;;;;5112044;28;20058;-71
2021/05/28 03:03:06;;;;;;;10.05;7.13;;;9.20;94.30;;;;;;5124877;27;20048;-72
2021/05/28 03:05:31;;;;;;;14.10;6.82;;;9.20;95.00;;;;;;5114053;27;20031;-71
2021/05/28 03:07:57;;;;;;;15.88;7.32;;;9.20;96.00;;;;;;5096701;28;20052;-72
2021/05/28 03:10:23;;;;;;;14.90;6.88;;;9.10;96.10;;;;;;5111840;28;20576;-72
2021/05/28 03:12:49;;;;;;;15.75;6.68;;;9.10;96.10;;;;;;5125339;27;20039;-71
2021/05/28 03:15:15;;;;;;;15.35;7.78;;;9.10;96.00;;;;;;5114087;28;20039;-71
2021/05/28 03:17:45;;;;;;;13.90;7.82;;;9.10;96.10;;;;;;5119164;27;20088;-71
2021/05/28 03:20:25;;;;;;;9.38;6.45;;;9.10;96.10;;;;;;5111237;28;20043;-71
2021/05/28 03:22:51;;;;;;;11.60;6.70;;;9.20;95.30;;;;;;5116749;28;20051;-72
2021/05/28 03:25:17;;;;;;;15.90;7.43;;;9.20;95.70;;;;;;5123620;28;20582;-71
2021/05/28 03:27:44;;;;;;;14.07;8.15;;;9.20;96.00;;;;;;5100450;28;20055;-72
2021/05/28 03:30:11;;;;;;;14.63;7.78;;;9.20;95.50;;;;;;5126922;28;20114;-72
2021/05/28 03:32:37;;;;;;;15.63;7.88;;;9.20;94.60;;;;;;5129519;28;20119;-72
2021/05/28 03:35:04;;;;;;;13.85;8.00;;;9.20;94.60;;;;;;5115254;28;20037;-72
2021/05/28 03:37:31;;;;;;;13.30;8.05;;;9.20;95.40;;;;;;5120062;28;20061;-71
2021/05/28 03:39:56;;;;;;;14.52;8.32;;;9.20;95.30;;;;;;5100067;28;20093;-72
2021/05/28 03:42:22;;;;;;;16.80;8.35;;;9.10;95.60;;;;;;5113492;28;20460;-72
2021/05/28 03:44:48;;;;;;;16.25;8.95;;;9.10;95.20;;;;;;5129481;28;20069;-71
2021/05/28 03:47:15;;;;;;;14.50;8.85;;;9.10;95.30;;;;;;5118931;28;20088;-72
2021/05/28 03:49:42;;;;;;;11.88;8.80;;;9.10;95.60;;;;;;5105587;28;20350;-72
2021/05/28 03:52:08;;;;;;;16.10;9.30;;;9.10;95.30;;;;;;5105596;28;20050;-72
2021/05/28 03:54:34;;;;;;;16.83;9.48;;;9.00;95.80;;;;;;5126938;28;20063;-71
2021/05/28 03:57:00;;;;;;;15.32;9.50;;;9.00;96.00;;;;;;5118538;28;20101;-70
2021/05/28 03:59:25;;;;;;;14.00;8.95;;;8.90;96.00;;;;;;5116374;28;20059;-71
2021/05/28 04:01:51;;;;;;;14.32;8.70;;;8.90;96.30;;;;;;5116813;28;20430;-71
2021/05/28 04:04:17;;;;;;;14.93;9.02;;;8.80;96.30;;;;;;5131736;28;20159;-72
2021/05/28 04:06:43;;;;;;;14.77;9.45;;;8.90;96.30;;;;;;5126905;28;20063;-72
2021/05/28 04:09:09;;;;;;;13.18;9.00;;;8.90;96.50;;;;;;5109423;27;20036;-71
2021/05/28 04:11:35;;;;;;;16.70;9.20;;;8.90;96.50;;;;;;5118719;28;20038;-71
2021/05/28 04:14:00;;;;;;;16.30;9.45;;;8.90;96.40;;;;;;5112481;28;20092;-71
2021/05/28 04:16:26;;;;;;;14.57;9.35;;;8.90;96.40;;;;;;5130380;28;20039;-72
2021/05/28 04:18:52;;;;;;;17.35;9.55;;;8.90;96.40;;;;;;5130863;28;20035;-71
2021/05/28 04:21:17;;;;;;;14.05;9.48;;;8.80;96.40;;;;;;5130988;28;20043;-72
2021/05/28 04:23:43;;;;;;;16.70;9.13;;;8.80;96.40;;;;;;5110603;28;20480;-71
2021/05/28 04:26:09;;;;;;;13.35;9.48;;;8.80;96.50;;;;;;5126482;28;20031;-71
2021/05/28 04:28:34;;;;;;;16.58;10.05;;;8.80;96.40;;;;;;5114629;28;20043;-71
2021/05/28 04:31:00;;;;;;;18.38;10.65;;;8.80;96.60;;;;;;5122929;27;20093;-71
2021/05/28 04:33:26;;;;;;;15.35;10.45;;;8.90;96.60;;;;;;5133590;27;20031;-71
2021/05/28 04:35:52;;;;;;;16.33;9.43;;;9.00;96.70;;;;;;5134006;27;20666;-71
2021/05/28 04:38:18;;;;;;;14.85;9.98;;;9.10;96.60;;;;;;5115408;27;20414;-71
2021/05/28 04:40:44;;;;;;;16.75;9.45;;;9.30;96.60;;;;;;5131783;27;20129;-72
2021/05/28 04:43:10;;;;;;;17.67;9.20;;;9.40;96.50;;;;;;5114803;27;20031;-71
2021/05/28 04:45:37;;;;;;;17.80;10.10;;;9.60;96.40;;;;;;5132727;27;20063;-72
2021/05/28 04:48:03;;;;;;;13.80;9.27;;;9.80;95.80;;;;;;5116334;27;20050;-72
2021/05/28 04:50:31;;;;;;;14.52;9.35;;;9.90;95.70;;;;;;5120133;27;20027;-72
2021/05/28 04:52:58;;;;;;;13.98;9.65;;;10.10;95.20;;;;;;5096026;28;20115;-72
2021/05/28 04:55:25;;;;;;;22.17;10.20;;;10.20;94.80;;;;;;5131162;27;20042;-71
2021/05/28 04:57:50;;;;;;;15.85;9.02;;;10.40;94.80;;;;;;5103785;28;20036;-72
2021/05/28 05:00:17;;;;;;;18.25;9.98;;;10.50;94.60;;;;;;5095184;27;20491;-72
2021/05/28 05:02:42;;;;;;;15.52;8.40;;;10.60;94.40;;;;;;5124577;27;20039;-71
2021/05/28 05:05:09;;;;;;;25.55;8.07;;;10.60;93.80;;;;;;5116284;27;20491;-71
2021/05/28 05:07:35;;;;;;;15.45;7.47;;;10.60;93.60;;;;;;5096015;28;20039;-72
2021/05/28 05:10:01;;;;;;;14.80;9.10;;;10.60;93.60;;;;;;5113690;28;20104;-72
2021/05/28 05:12:29;;;;;;;14.27;8.15;;;10.70;93.70;;;;;;5131969;27;20043;-72
2021/05/28 05:14:58;;;;;;;11.13;7.85;;;10.70;93.60;;;;;;5114428;27;20031;-72
2021/05/28 05:17:24;;;;;;;16.73;8.30;;;10.80;93.40;;;;;;5108860;27;20037;-72
2021/05/28 05:19:50;;;;;;;15.07;8.20;;;11.00;93.10;;;;;;5106542;28;20051;-72
2021/05/28 05:22:16;;;;;;;15.27;8.93;;;11.10;92.50;;;;;;5125666;27;20378;-72
2021/05/28 05:24:41;;;;;;;16.08;8.75;;;11.20;92.40;;;;;;5134123;27;20042;-72
2021/05/28 05:27:07;;;;;;;15.00;7.85;;;11.30;92.60;;;;;;5123091;27;20500;-72
2021/05/28 05:29:33;;;;;;;18.70;8.00;;;11.40;91.90;;;;;;5113444;28;20051;-72
2021/05/28 05:31:59;;;;;;;12.70;7.47;;;11.50;91.70;;;;;;5118896;27;20057;-72
2021/05/28 05:34:25;;;;;;;15.18;7.78;;;11.60;91.80;;;;;;5128041;27;20492;-70
2021/05/28 05:36:51;;;;;;;13.23;8.30;;;11.80;91.70;;;;;;5133967;27;20070;-70
2021/05/28 05:39:17;;;;;;;15.73;8.25;;;11.90;91.60;;;;;;5133146;27;20138;-71
2021/05/28 05:41:42;;;;;;;18.67;9.23;;;11.90;91.40;;;;;;5126345;27;20431;-70
2021/05/28 05:44:08;;;;;;;13.45;8.38;;;11.90;91.90;;;;;;5096054;28;20508;-71
2021/05/28 05:46:34;;;;;;;12.13;7.85;;;12.00;91.60;;;;;;5114319;27;20070;-71
2021/05/28 05:49:00;;;;;;;17.48;9.15;;;12.10;91.50;;;;;;5095927;28;20063;-71
2021/05/28 05:51:26;;;;;;;14.27;8.40;;;12.10;91.70;;;;;;5112931;28;20050;-71
2021/05/28 05:53:52;;;;;;;13.48;8.75;;;12.60;91.20;;;;;;5095742;28;20039;-71
2021/05/28 05:56:18;;;;;;;15.45;8.18;;;13.50;90.40;;;;;;5123210;27;20538;-70
2021/05/28 05:58:43;;;;;;;11.80;7.28;;;14.70;86.20;;;;;;5118444;27;20528;-65
2021/05/28 06:01:09;;;;;;;15.40;8.45;;;16.20;82.00;;;;;;5132476;27;20035;-66
2021/05/28 06:03:35;;;;;;;11.30;7.63;;;16.80;78.80;;;;;;5131252;27;20074;-65
2021/05/28 06:06:01;;;;;;;11.75;7.32;;;16.60;76.00;;;;;;5114619;27;20066;-65
2021/05/28 06:08:26;;;;;;;14.20;8.38;;;16.10;76.40;;;;;;5131525;27;20477;-66
2021/05/28 06:10:53;;;;;;;13.00;8.27;;;15.60;76.60;;;;;;5112325;28;20127;-66
2021/05/28 06:13:19;;;;;;;12.88;8.00;;;15.20;78.60;;;;;;5114583;27;20039;-66
2021/05/28 06:15:44;;;;;;;12.80;8.15;;;14.80;79.00;;;;;;5131505;27;20027;-66
2021/05/28 06:18:10;;;;;;;11.43;7.85;;;14.50;80.40;;;;;;5130934;27;20031;-66
2021/05/28 06:20:37;;;;;;;12.18;7.85;;;14.40;79.40;;;;;;5093841;28;20118;-66
2021/05/28 06:23:03;;;;;;;13.88;8.63;;;14.20;80.20;;;;;;5094097;27;20122;-66
2021/05/28 06:25:29;;;;;;;11.30;7.05;;;14.00;82.00;;;;;;5127534;27;20478;-66
2021/05/28 06:27:55;;;;;;;9.68;7.15;;;14.00;81.50;;;;;;5132437;27;20490;-67
2021/05/28 06:30:21;;;;;;;13.82;7.38;;;14.00;82.40;;;;;;5111719;28;20036;-66
2021/05/28 06:32:46;;;;;;;10.68;6.80;;;14.40;82.60;;;;;;5126893;27;20053;-66
2021/05/28 06:35:12;;;;;;;10.18;6.70;;;15.60;79.80;;;;;;5120144;27;20039;-68
2021/05/28 06:37:38;;;;;;;11.48;7.55;;;16.90;76.60;;;;;;5112003;28;20078;-68
2021/05/28 06:40:05;;;;;;;11.00;6.38;;;17.90;73.00;;;;;;5110007;27;20055;-68
2021/05/28 06:42:32;;;;;;;9.07;5.95;;;18.60;69.60;;;;;;5116300;27;20027;-67
2021/05/28 06:44:58;;;;;;;8.50;5.43;;;19.60;68.70;;;;;;5142743;27;20027;-68
2021/05/28 06:47:25;;;;;;;8.52;5.85;;;20.60;63.40;;;;;;5125725;27;20042;-68
2021/05/28 06:49:51;;;;;;;8.57;4.78;;;21.30;61.00;;;;;;5129532;27;20043;-70
2021/05/28 06:52:17;;;;;;;8.85;5.07;;;21.80;59.10;;;;;;5130599;27;20437;-70
2021/05/28 06:54:43;;;;;;;9.07;5.93;;;22.10;59.10;;;;;;5106974;22;20084;-67
2021/05/28 06:57:09;;;;;;;7.03;5.32;;;21.70;56.90;;;;;;5052328;28;20040;-67
2021/05/28 06:59:34;;;;;;;11.20;5.45;;;22.30;57.90;;;;;;5051922;28;20055;-67
2021/05/28 07:02:00;;;;;;;11.38;5.60;;;22.60;52.80;;;;;;5052175;28;20041;-67
2021/05/28 07:04:26;;;;;;;8.23;5.22;;;22.60;53.50;;;;;;5070021;28;20470;-67
2021/05/28 07:06:52;;;;;;;8.73;4.78;;;22.70;55.70;;;;;;5072078;28;20072;-67
2021/05/28 07:09:18;;;;;;;7.88;4.88;;;23.30;56.30;;;;;;5070031;28;20036;-67
2021/05/28 07:11:44;;;;;;;8.65;5.32;;;23.60;53.60;;;;;;5054257;28;20125;-67
2021/05/28 07:14:10;;;;;;;9.40;5.20;;;24.00;53.10;;;;;;5065506;28;20100;-67
2021/05/28 07:16:35;;;;;;;7.50;4.60;;;24.30;53.80;;;;;;5072113;28;20119;-67
2021/05/28 07:19:01;;;;;;;9.98;4.78;;;24.50;51.00;;;;;;5071958;28;20086;-67
2021/05/28 07:21:27;;;;;;;6.85;4.80;;;24.80;52.40;;;;;;5071950;28;20044;-67
2021/05/28 07:23:53;;;;;;;6.18;4.55;;;24.80;49.40;;;;;;5071854;28;20114;-67
2021/05/28 07:26:20;;;;;;;5.68;4.50;;;25.10;49.80;;;;;;5071704;28;20051;-67
2021/05/28 07:28:46;;;;;;;8.07;4.57;;;25.30;48.10;;;;;;5052103;28;20045;-67
2021/05/28 07:31:11;;;;;;;6.15;4.43;;;25.40;48.10;;;;;;5051927;28;20033;-67
2021/05/28 07:33:38;;;;;;;8.85;4.40;;;25.60;48.20;;;;;;5052029;28;20094;-67
2021/05/28 07:36:09;;;;;;;8.10;4.35;;;25.10;47.30;;;;;;5051884;28;20033;-67
2021/05/28 07:38:36;;;;;;;6.68;3.83;;;25.10;47.40;;;;;;5066813;28;20501;-67
2021/05/28 07:41:03;;;;;;;6.15;3.83;;;25.20;46.40;;;;;;5070264;28;20048;-67
2021/05/28 07:43:28;;;;;;;6.40;3.90;;;24.80;46.50;;;;;;5055130;28;20108;-67
2021/05/28 07:45:54;;;;;;;7.35;4.60;;;24.10;48.20;;;;;;5052066;28;20111;-67
2021/05/28 07:48:21;;;;;;;8.57;4.55;;;22.80;49.40;;;;;;5051626;28;20479;-67
2021/05/28 07:50:48;;;;;;;5.25;4.10;;;22.40;51.80;;;;;;5052146;28;20048;-67
2021/05/28 07:53:16;;;;;;;6.43;4.40;;;22.50;51.70;;;;;;5051738;28;20162;-67
2021/05/28 07:55:42;;;;;;;6.22;4.30;;;22.30;53.10;;;;;;5050415;28;20098;-67
2021/05/28 07:58:08;;;;;;;11.20;4.35;;;21.60;54.50;;;;;;5050674;28;20049;-67
2021/05/28 08:00:34;;;;;;;8.65;4.70;;;21.00;55.70;;;;;;5051193;28;20116;-67
2021/05/28 08:03:01;;;;;;;6.25;3.70;;;21.10;56.30;;;;;;5051852;28;20052;-67
2021/05/28 08:05:27;;;;;;;6.75;4.03;;;21.00;57.70;;;;;;5058417;28;20103;-67
2021/05/28 08:07:54;;;;;;;8.15;4.05;;;20.50;57.30;;;;;;5075523;28;20510;-67
2021/05/28 08:10:20;;;;;;;7.68;4.05;;;20.30;57.80;;;;;;5075541;28;20469;-66
2021/05/28 08:12:48;;;;;;;5.93;4.05;;;20.10;58.90;;;;;;5075222;28;20093;-66
2021/05/28 08:15:14;;;;;;;6.65;3.78;;;19.10;61.10;;;;;;5075373;28;20059;-67
2021/05/28 08:17:40;;;;;;;4.63;3.50;;;18.60;62.90;;;;;;5074827;28;20068;-67
2021/05/28 08:20:06;;;;;;;5.82;3.30;;;18.00;63.50;;;;;;5074739;28;20048;-68
2021/05/28 08:22:32;;;;;;;4.10;3.65;;;17.60;64.80;;;;;;5073816;28;20351;-69
2021/05/28 08:24:57;;;;;;;7.03;4.18;;;17.50;67.60;;;;;;5075084;28;20059;-69
2021/05/28 08:27:23;;;;;;;5.28;3.92;;;16.70;70.30;;;;;;5075182;28;20041;-69
2021/05/28 08:29:49;;;;;;;4.80;3.72;;;16.80;70.90;;;;;;5075354;28;20037;-69
2021/05/28 08:32:15;;;;;;;7.15;4.00;;;17.00;68.80;;;;;;5075387;28;20044;-69
2021/05/28 08:34:41;;;;;;;6.22;4.22;;;17.20;68.80;;;;;;5075058;28;20037;-69
2021/05/28 08:37:07;;;;;;;4.60;3.30;;;17.30;69.80;;;;;;5074431;28;20041;-68
2021/05/28 08:39:32;;;;;;;8.50;4.05;;;17.50;68.00;;;;;;5061888;28;20037;-68
2021/05/28 08:41:59;;;;;;;6.72;3.90;;;17.50;67.70;;;;;;5056818;28;20037;-67
2021/05/28 08:44:26;;;;;;;5.28;3.80;;;17.20;70.20;;;;;;5072932;28;20097;-68
2021/05/28 08:46:52;;;;;;;5.53;3.50;;;17.70;67.80;;;;;;5074142;28;20033;-68
2021/05/28 08:49:19;;;;;;;5.55;3.58;;;17.70;68.40;;;;;;5074429;28;20033;-68
2021/05/28 08:51:45;;;;;;;7.80;3.80;;;18.00;66.90;;;;;;5073173;28;20097;-68
2021/05/28 08:54:11;;;;;;;5.95;3.80;;;18.00;66.20;;;;;;5070590;28;20531;-68
2021/05/28 08:56:37;;;;;;;6.03;3.58;;;17.90;66.80;;;;;;5054636;28;20095;-68
2021/05/28 08:59:05;;;;;;;5.78;3.25;;;17.80;68.20;;;;;;5057037;28;20381;-67
2021/05/28 09:01:31;;;;;;;5.47;3.40;;;18.00;66.00;;;;;;5073442;28;20033;-67
2021/05/28 09:04:02;;;;;;;5.50;3.90;;;18.00;66.80;;;;;;5072689;28;20044;-67
2021/05/28 09:06:37;;;;;;;4.75;3.10;;;17.30;65.50;;;;;;5074085;28;20097;-68
2021/05/28 09:09:17;;;;;;;5.55;3.80;;;17.10;70.50;;;;;;5074245;28;20045;-67
2021/05/28 09:11:51;;;;;;;4.43;3.33;;;17.10;69.20;;;;;;5074009;28;20032;-67
2021/05/28 09:14:37;;;;;;;7.90;4.07;;;17.40;68.90;;;;;;5074400;28;20468;-68
2021/05/28 09:17:04;;;;;;;6.50;3.10;;;17.20;67.50;;;;;;5070772;28;20539;-68
2021/05/28 09:19:30;;;;;;;6.10;3.60;;;17.50;70.90;;;;;;5072379;28;20028;-68
2021/05/28 09:22:02;;;;;;;5.28;3.20;;;17.50;69.30;;;;;;5074550;28;20447;-68
2021/05/28 09:24:32;;;;;;;5.50;3.20;;;17.40;69.60;;;;;;5074306;28;20040;-68
2021/05/28 09:27:24;;;;;;;4.80;2.70;;;17.50;69.50;;;;;;5074066;28;20044;-68
2021/05/28 09:30:13;;;;;;;7.45;3.13;;;17.30;67.80;;;;;;5073764;28;20083;-68
2021/05/28 09:32:45;;;;;;;4.57;2.78;;;17.10;69.40;;;;;;5063954;28;20061;-68
2021/05/28 09:35:13;;;;;;;3.80;2.33;;;17.20;70.00;;;;;;5071163;28;20041;-69
2021/05/28 09:37:47;;;;;;;4.93;2.17;;;17.30;69.70;;;;;;5073956;28;20040;-69
2021/05/28 09:40:19;;;;;;;5.47;2.40;;;17.30;69.70;;;;;;5073094;28;20036;-69
2021/05/28 09:42:46;;;;;;;4.80;2.50;;;17.20;69.60;;;;;;5072812;28;20032;-69
2021/05/28 09:45:22;;;;;;;4.75;2.70;;;17.20;70.80;;;;;;5072312;28;20094;-69
2021/05/28 09:47:48;;;;;;;3.47;2.33;;;17.10;72.20;;;;;;5072546;28;20041;-69
2021/05/28 09:50:14;;;;;;;5.70;2.10;;;17.20;69.70;;;;;;5072427;28;20043;-69
2021/05/28 09:52:40;;;;;;;5.25;2.42;;;17.20;69.40;;;;;;5072496;28;20115;-69
2021/05/28 09:55:12;;;;;;;3.85;2.08;;;17.30;67.50;;;;;;5072193;28;20132;-69
2021/05/28 09:57:44;;;;;;;2.55;1.77;;;17.20;66.00;;;;;;5072256;28;20493;-69
2021/05/28 10:00:25;;;;;;;1.85;1.75;;;17.30;69.10;;;;;;5071263;28;20044;-69
2021/05/28 10:03:22;;;;;;;4.85;1.90;;;17.60;68.90;;;;;;5072617;28;20063;-69
2021/05/28 10:05:51;;;;;;;2.85;2.20;;;17.90;66.30;;;;;;5072320;28;20470;-69
2021/05/28 10:08:19;;;;;;;2.65;2.00;;;17.90;66.40;;;;;;5070804;28;20047;-70
2021/05/28 10:10:47;;;;;;;3.88;2.30;;;18.00;67.40;;;;;;5071744;28;20041;-69
2021/05/28 10:13:14;;;;;;;3.00;1.85;;;18.20;66.90;;;;;;5071079;28;20040;-69
2021/05/28 10:15:46;;;;;;;3.08;1.88;;;18.20;66.30;;;;;;5072101;28;20181;-69
2021/05/28 10:18:13;;;;;;;3.27;2.23;;;18.10;66.90;;;;;;5070583;28;20044;-68
2021/05/28 10:20:41;;;;;;;4.45;2.50;;;18.00;67.60;;;;;;5071769;28;20036;-69
2021/05/28 10:23:09;;;;;;;2.75;1.88;;;18.10;69.10;;;;;;5071793;28;20056;-69
2021/05/28 10:25:37;;;;;;;3.40;1.90;;;18.30;66.30;;;;;;5070552;28;20497;-69
2021/05/28 10:28:06;;;;;;;2.50;1.95;;;17.90;62.50;;;;;;5071810;28;20050;-69
2021/05/28 10:30:43;;;;;;;3.50;2.25;;;18.20;65.40;;;;;;5071793;28;20110;-69
2021/05/28 10:33:29;;;;;;;2.30;1.80;;;18.00;66.50;;;;;;5072249;28;20102;-69
2021/05/28 10:36:00;;;;;;;2.97;1.75;;;18.20;64.00;;;;;;5071646;28;20041;-69
2021/05/28 10:38:29;;;;;;;3.83;1.97;;;18.30;63.50;;;;;;5087041;28;20072;-69
2021/05/28 10:41:06;;;;;;;2.25;1.83;;;18.00;62.70;;;;;;5071436;28;20369;-69
2021/05/28 10:43:38;;;;;;;2.80;1.60;;;18.20;65.60;;;;;;5071494;28;20111;-68
2021/05/28 10:46:05;;;;;;;2.95;1.80;;;18.20;67.50;;;;;;5071279;28;20116;-68
2021/05/28 10:48:37;;;;;;;2.10;1.65;;;18.50;66.00;;;;;;5070098;28;20044;-69
2021/05/28 10:51:26;;;;;;;1.65;1.52;;;17.70;64.50;;;;;;5071253;28;20032;-69
2021/05/28 10:53:52;;;;;;;4.20;1.63;;;18.00;66.90;;;;;;5070746;28;20393;-69
2021/05/28 10:56:42;;;;;;;3.80;1.63;;;18.20;66.30;;;;;;5071360;28;20032;-69
2021/05/28 10:59:14;;;;;;;3.22;1.95;;;17.70;66.20;;;;;;5071672;28;20052;-69
2021/05/28 11:01:58;;;;;;;2.40;1.67;;;17.50;66.70;;;;;;5086727;28;20045;-69
2021/05/28 11:04:27;;;;;;;2.13;1.42;;;18.00;66.60;;;;;;5069858;28;20044;-69
2021/05/28 11:06:55;;;;;;;1.73;1.48;;;17.90;62.00;;;;;;5070961;28;20040;-69
2021/05/28 11:09:40;;;;;;;4.90;1.60;;;18.20;63.40;;;;;;5069812;28;20035;-69
2021/05/28 11:12:07;;;;;;;4.57;1.60;;;18.10;65.00;;;;;;5070979;28;20043;-69
2021/05/28 11:14:35;;;;;;;9.00;2.10;;;17.70;66.60;;;;;;5069859;28;20044;-69
2021/05/28 11:17:01;;;;;;;3.20;1.40;;;17.70;64.80;;;;;;5070692;28;20040;-69
2021/05/28 11:19:39;;;;;;;2.65;1.60;;;17.80;65.70;;;;;;5070943;28;20037;-69
2021/05/28 11:22:14;;;;;;;2.42;1.55;;;17.40;66.50;;;;;;5070898;28;20036;-69
2021/05/28 11:24:43;;;;;;;2.22;1.40;;;17.40;64.10;;;;;;5071131;28;20131;-69
2021/05/28 11:27:21;;;;;;;2.08;1.60;;;17.90;64.30;;;;;;5070499;28;20113;-69
2021/05/28 11:30:18;;;;;;;4.10;1.65;;;18.20;64.10;;;;;;5071387;28;20044;-69
2021/05/28 11:32:44;;;;;;;2.53;1.23;;;18.80;65.20;;;;;;5071017;28;20040;-66
2021/05/28 11:35:09;;;;;;;2.70;1.70;;;18.50;62.30;;;;;;5070916;28;20395;-66
2021/05/28 11:37:54;;;;;;;3.70;1.83;;;18.90;64.60;;;;;;5070569;28;20045;-66
2021/05/28 11:40:25;;;;;;;2.28;1.50;;;19.10;63.20;;;;;;5070674;28;20037;-66
2021/05/28 11:42:52;;;;;;;2.40;1.80;;;19.10;62.50;;;;;;5074853;28;20040;-66
2021/05/28 11:45:20;;;;;;;1.98;1.40;;;19.30;63.80;;;;;;5073502;28;20150;-66
2021/05/28 11:47:46;;;;;;;2.40;1.70;;;19.50;63.20;;;;;;5073489;28;20037;-66
2021/05/28 11:50:17;;;;;;;3.00;1.92;;;19.50;61.70;;;;;;5074691;28;20040;-66
2021/05/28 11:53:04;;;;;;;3.45;2.00;;;19.20;60.20;;;;;;5074597;28;20040;-66
2021/05/28 11:55:31;;;;;;;3.53;1.70;;;19.50;63.40;;;;;;5074323;28;20550;-67
2021/05/28 11:58:04;;;;;;;4.50;1.90;;;19.50;61.60;;;;;;5074479;28;20098;-66
2021/05/28 12:00:32;;;;;;;2.25;1.45;;;19.50;61.60;;;;;;5073031;28;20112;-66
2021/05/28 12:02:59;;;;;;;2.38;1.40;;;18.80;62.00;;;;;;5074565;28;20043;-67
2021/05/28 12:05:35;;;;;;;1.73;1.40;;;19.30;62.70;;;;;;5074192;28;20123;-69
2021/05/28 12:08:09;;;;;;;1.73;1.42;;;18.90;61.50;;;;;;5074618;28;20036;-69
2021/05/28 12:10:36;;;;;;;3.60;1.50;;;19.10;62.80;;;;;;5074278;28;20044;-69
2021/05/28 12:13:10;;;;;;;2.75;1.60;;;19.20;63.00;;;;;;5074158;28;20044;-69
2021/05/28 12:15:54;;;;;;;3.13;1.70;;;18.30;60.30;;;;;;5074539;28;20040;-69
2021/05/28 12:18:33;;;;;;;2.42;1.45;;;18.50;58.70;;;;;;5074310;28;20082;-67
2021/05/28 12:21:02;;;;;;;2.67;1.55;;;18.50;60.90;;;;;;5073058;28;20110;-69
2021/05/28 12:23:54;;;;;;;3.72;1.50;;;18.70;63.30;;;;;;5073847;28;20044;-69
2021/05/28 12:26:29;;;;;;;2.58;1.48;;;18.80;62.50;;;;;;5072804;28;20158;-69
2021/05/28 12:28:57;;;;;;;3.35;1.80;;;18.60;63.90;;;;;;5073996;28;20390;-69
2021/05/28 12:31:24;;;;;;;4.22;1.85;;;18.70;63.60;;;;;;5074021;28;20436;-69
2021/05/28 12:34:02;;;;;;;3.08;1.45;;;18.60;61.50;;;;;;5073666;28;20470;-69
2021/05/28 12:36:43;;;;;;;2.95;1.35;;;18.60;62.40;;;;;;5073855;28;20045;-69
2021/05/28 12:39:14;;;;;;;1.58;1.20;;;18.40;63.00;;;;;;5073791;28;20069;-69
2021/05/28 12:41:44;;;;;;;2.38;1.52;;;18.10;62.40;;;;;;5073496;28;20040;-69
2021/05/28 12:44:16;;;;;;;1.27;1.17;;;18.30;65.80;;;;;;5072351;28;20116;-69
2021/05/28 12:46:42;;;;;;;;;;;18.40;66.40;;;;;;5074189;28;20386;-69
2021/05/28 12:49:13;;;;;;;2.80;1.60;;;18.60;64.30;;;;;;5073495;28;19920;-69